Time;durP1;ratioP1;P1;durP2;ratioP2;P2;SDS_P1;SDS_P2;PMS_P1;PMS_P2;Temp;Humidity;BMP_temperature;BMP_pressure;BME280_temperature;BME280_humidity;BME280_pressure;Samples;Min_cycle;Max_cycle;Signal;HPM_P1;HPM_P2
2021/09/18 00:00:19;;;;;;;63.33;42.10;;;14.50;1.00;;;;;;5035199;28;20272;-57
2021/09/18 00:02:45;;;;;;;61.77;41.87;;;14.50;1.00;;;;;;5035449;28;20210;-58
2021/09/18 00:05:12;;;;;;;53.97;38.70;;;14.50;1.00;;;;;;5035254;28;20264;-58
2021/09/18 00:07:39;;;;;;;60.97;41.30;;;14.50;1.00;;;;;;5035558;28;20288;-58
2021/09/18 00:10:06;;;;;;;66.37;44.63;;;14.50;1.00;;;;;;5035383;28;20209;-60
2021/09/18 00:12:33;;;;;;;63.63;44.30;;;14.50;1.00;;;;;;5035103;28;20284;-58
2021/09/18 00:15:01;;;;;;;63.80;43.80;;;14.60;1.00;;;;;;5034777;28;20678;-59
2021/09/18 00:17:29;;;;;;;62.63;42.63;;;14.60;1.00;;;;;;5035051;28;20718;-58
2021/09/18 00:19:56;;;;;;;60.47;41.23;;;14.60;1.00;;;;;;5035045;28;20232;-59
2021/09/18 00:22:22;;;;;;;59.97;40.60;;;14.60;1.00;;;;;;5035071;28;20733;-60
2021/09/18 00:24:49;;;;;;;62.47;42.83;;;14.60;1.00;;;;;;5034997;28;20205;-58
2021/09/18 00:27:16;;;;;;;55.90;40.23;;;14.60;1.00;;;;;;5034625;28;20230;-59
2021/09/18 00:29:42;;;;;;;56.90;40.23;;;14.70;1.00;;;;;;5035065;28;20198;-57
2021/09/18 00:32:09;;;;;;;56.70;40.63;;;14.70;1.00;;;;;;5034904;28;20276;-58
2021/09/18 00:34:37;;;;;;;60.37;41.57;;;14.70;1.00;;;;;;5034606;28;20913;-56
2021/09/18 00:37:04;;;;;;;62.20;42.67;;;14.70;1.00;;;;;;5034741;28;20284;-58
2021/09/18 00:39:30;;;;;;;69.57;43.33;;;14.70;1.00;;;;;;5034750;28;20215;-58
2021/09/18 00:41:57;;;;;;;70.60;46.27;;;14.60;1.00;;;;;;5034590;28;20237;-59
2021/09/18 00:44:28;;;;;;;66.80;42.33;;;14.50;1.00;;;;;;5034725;28;20210;-59
2021/09/18 00:46:55;;;;;;;65.20;43.60;;;14.60;1.00;;;;;;5034482;28;20230;-55
2021/09/18 00:49:22;;;;;;;64.07;41.73;;;14.60;1.00;;;;;;5034501;28;20210;-59
2021/09/18 00:51:50;;;;;;;67.03;43.87;;;14.60;1.00;;;;;;5034671;28;20258;-59
2021/09/18 00:54:17;;;;;;;60.67;41.47;;;14.60;1.00;;;;;;5034412;28;20260;-59
2021/09/18 00:56:44;;;;;;;61.70;42.47;;;14.70;1.00;;;;;;5033099;28;20544;-58
2021/09/18 00:59:11;;;;;;;66.37;42.13;;;14.70;1.00;;;;;;5034322;28;20351;-58
2021/09/18 01:01:38;;;;;;;67.57;42.43;;;14.70;1.00;;;;;;5034352;28;20284;-54
2021/09/18 01:04:05;;;;;;;62.53;42.57;;;14.70;1.00;;;;;;5034285;28;20209;-58
2021/09/18 01:06:32;;;;;;;57.77;39.43;;;14.80;1.00;;;;;;5033989;28;20702;-54
2021/09/18 01:09:00;;;;;;;61.67;41.47;;;14.80;1.00;;;;;;5033977;28;20210;-56
2021/09/18 01:11:28;;;;;;;63.77;40.73;;;14.80;1.00;;;;;;5034198;28;20670;-57
2021/09/18 01:13:54;;;;;;;56.77;38.63;;;14.80;1.00;;;;;;5034163;28;20253;-57
2021/09/18 01:16:22;;;;;;;60.40;39.60;;;14.80;1.00;;;;;;5033845;28;20222;-58
2021/09/18 01:18:49;;;;;;;54.27;36.20;;;14.80;1.00;;;;;;5034045;28;20738;-54
2021/09/18 01:21:16;;;;;;;58.10;39.10;;;14.80;1.00;;;;;;5033664;28;20222;-53
2021/09/18 01:23:44;;;;;;;57.47;37.73;;;14.90;1.00;;;;;;5034063;28;20893;-58
2021/09/18 01:26:11;;;;;;;53.17;36.17;;;14.90;1.00;;;;;;5033694;28;20234;-55
2021/09/18 01:28:40;;;;;;;54.60;35.53;;;14.90;1.00;;;;;;5033895;28;20210;-55
2021/09/18 01:31:07;;;;;;;51.33;35.57;;;14.90;1.00;;;;;;5033852;28;20297;-56
2021/09/18 01:33:34;;;;;;;54.17;35.00;;;14.90;1.00;;;;;;5033652;28;20214;-55
2021/09/18 01:36:01;;;;;;;49.77;35.30;;;14.90;1.00;;;;;;5033224;28;20281;-59
2021/09/18 01:38:27;;;;;;;50.83;33.40;;;14.90;1.00;;;;;;5033748;28;20276;-59
2021/09/18 01:40:55;;;;;;;50.23;34.50;;;14.90;1.00;;;;;;5033641;28;20654;-60
2021/09/18 01:43:23;;;;;;;57.30;36.03;;;14.90;1.00;;;;;;5033462;28;20348;-59
2021/09/18 01:45:49;;;;;;;57.13;37.27;;;14.90;1.00;;;;;;5033236;28;20702;-59
2021/09/18 01:48:17;;;;;;;52.57;36.10;;;14.80;1.00;;;;;;5033345;28;20221;-60
2021/09/18 01:50:46;;;;;;;52.60;37.10;;;14.80;1.00;;;;;;5033345;28;20206;-60
2021/09/18 01:53:15;;;;;;;60.60;39.23;;;14.80;1.00;;;;;;5033462;28;20221;-60
2021/09/18 01:55:42;;;;;;;59.57;37.67;;;14.80;1.00;;;;;;5033793;28;20253;-59
2021/09/18 01:58:11;;;;;;;60.07;38.47;;;14.70;1.00;;;;;;5033405;28;20280;-59
2021/09/18 02:00:39;;;;;;;66.00;38.87;;;14.70;1.00;;;;;;5033071;28;20626;-51
2021/09/18 02:03:06;;;;;;;60.43;39.10;;;14.70;1.00;;;;;;5032967;28;20888;-56
2021/09/18 02:05:33;;;;;;;64.23;39.87;;;14.70;1.00;;;;;;5032857;28;20206;-57
2021/09/18 02:08:00;;;;;;;64.17;41.20;;;14.70;1.00;;;;;;5032769;28;20233;-59
2021/09/18 02:10:29;;;;;;;66.60;42.23;;;14.60;1.00;;;;;;5033030;28;20260;-58
2021/09/18 02:12:57;;;;;;;68.60;43.77;;;14.60;1.00;;;;;;5032909;28;20671;-54
2021/09/18 02:15:25;;;;;;;76.87;46.53;;;14.60;1.00;;;;;;5033161;28;20256;-51
2021/09/18 02:17:52;;;;;;;68.93;45.17;;;14.60;1.00;;;;;;5033819;28;20233;-54
2021/09/18 02:20:20;;;;;;;74.37;45.50;;;14.60;1.00;;;;;;5033334;28;20769;-59
2021/09/18 02:22:47;;;;;;;73.50;46.73;;;14.60;1.00;;;;;;5032706;28;20741;-59
2021/09/18 02:25:15;;;;;;;70.60;45.67;;;14.70;1.00;;;;;;5032478;28;20206;-59
2021/09/18 02:27:42;;;;;;;74.93;46.23;;;14.70;1.00;;;;;;5032699;28;20714;-57
2021/09/18 02:30:12;;;;;;;73.43;47.63;;;14.70;1.00;;;;;;5032494;28;20673;-59
2021/09/18 02:32:40;;;;;;;78.90;50.83;;;14.60;1.00;;;;;;5032731;28;20213;-56
2021/09/18 02:35:10;;;;;;;83.93;53.10;;;14.60;1.00;;;;;;5032345;28;20748;-56
2021/09/18 02:37:37;;;;;;;81.97;52.93;;;14.60;1.00;;;;;;5032498;28;20230;-58
2021/09/18 02:40:05;;;;;;;79.60;49.50;;;14.60;1.00;;;;;;5032352;28;20264;-58
2021/09/18 02:42:32;;;;;;;82.77;49.30;;;14.60;1.00;;;;;;5032293;28;20206;-58
2021/09/18 02:44:59;;;;;;;85.33;50.90;;;14.60;1.00;;;;;;5032645;28;20206;-59
2021/09/18 02:47:27;;;;;;;82.50;50.83;;;14.50;1.00;;;;;;5032166;28;20227;-59
2021/09/18 02:49:55;;;;;;;84.73;51.37;;;14.50;1.00;;;;;;5032538;28;20210;-58
2021/09/18 02:52:21;;;;;;;79.60;50.60;;;14.50;1.00;;;;;;5032549;28;20257;-58
2021/09/18 02:54:48;;;;;;;81.60;50.17;;;14.50;1.00;;;;;;5032077;28;20260;-57
2021/09/18 02:57:15;;;;;;;90.63;51.07;;;14.40;1.00;;;;;;5031992;28;20321;-58
2021/09/18 02:59:41;;;;;;;69.33;47.40;;;14.40;1.00;;;;;;5032358;28;20210;-58
2021/09/18 03:02:08;;;;;;;75.50;48.07;;;14.40;1.00;;;;;;5032236;28;20226;-58
2021/09/18 03:04:35;;;;;;;77.60;47.83;;;14.40;99.90;;;;;;5031960;28;20210;-56
2021/09/18 03:07:03;;;;;;;77.63;47.13;;;14.30;99.90;;;;;;5032100;28;20651;-59
2021/09/18 03:09:30;;;;;;;88.97;49.77;;;14.20;1.00;;;;;;5031861;28;20253;-59
2021/09/18 03:11:57;;;;;;;86.27;48.97;;;14.20;1.00;;;;;;5031882;28;20210;-58
2021/09/18 03:14:23;;;;;;;94.20;53.80;;;14.20;1.00;;;;;;5032000;28;20210;-57
2021/09/18 03:16:50;;;;;;;115.40;57.47;;;14.00;1.00;;;;;;5032040;28;20280;-59
2021/09/18 03:19:16;;;;;;;102.07;56.23;;;14.00;1.00;;;;;;5031165;28;20269;-58
2021/09/18 03:21:43;;;;;;;92.93;52.57;;;14.00;1.00;;;;;;5031882;28;20578;-56
2021/09/18 03:24:13;;;;;;;93.73;52.50;;;14.00;1.00;;;;;;5031694;28;20209;-59
2021/09/18 03:26:40;;;;;;;85.57;52.50;;;14.00;1.00;;;;;;5032103;28;20226;-58
2021/09/18 03:29:07;;;;;;;83.53;47.63;;;13.90;1.00;;;;;;5032088;28;20210;-58
2021/09/18 03:31:33;;;;;;;79.13;47.53;;;13.90;1.00;;;;;;5031694;28;20603;-58
2021/09/18 03:34:00;;;;;;;82.73;49.80;;;13.80;1.00;;;;;;5031925;28;20304;-59
2021/09/18 03:36:27;;;;;;;93.10;51.60;;;13.80;1.00;;;;;;5031706;28;20376;-58
2021/09/18 03:38:53;;;;;;;100.47;54.30;;;13.70;1.00;;;;;;5031586;28;20623;-58
2021/09/18 03:41:22;;;;;;;100.60;54.90;;;13.70;1.00;;;;;;5031787;28;20234;-58
2021/09/18 03:43:48;;;;;;;86.77;50.70;;;13.70;1.00;;;;;;5031857;28;20625;-57
2021/09/18 03:46:15;;;;;;;94.80;53.00;;;13.70;1.00;;;;;;5031526;28;20236;-57
2021/09/18 03:48:42;;;;;;;98.20;53.23;;;13.70;1.00;;;;;;5031583;28;20283;-59
2021/09/18 03:51:09;;;;;;;99.10;55.60;;;13.60;1.00;;;;;;5031626;28;20202;-59
2021/09/18 03:53:35;;;;;;;99.03;54.47;;;13.60;1.00;;;;;;5031388;28;20210;-56
2021/09/18 03:56:02;;;;;;;97.00;53.90;;;13.60;1.00;;;;;;5031601;28;20261;-59
2021/09/18 03:58:30;;;;;;;121.43;60.30;;;13.60;1.00;;;;;;5031600;28;20237;-57
2021/09/18 04:00:57;;;;;;;137.23;64.23;;;13.50;1.00;;;;;;5031898;28;20232;-59
2021/09/18 04:03:24;;;;;;;133.80;65.13;;;13.40;1.00;;;;;;5031454;28;20565;-57
2021/09/18 04:05:51;;;;;;;129.83;63.47;;;13.40;1.00;;;;;;5031118;28;20206;-59
2021/09/18 04:08:17;;;;;;;136.23;63.53;;;13.40;1.00;;;;;;5031642;28;20256;-59
2021/09/18 04:10:45;;;;;;;137.33;65.17;;;13.30;1.00;;;;;;5031649;28;20208;-59
2021/09/18 04:13:11;;;;;;;135.87;64.83;;;13.20;1.00;;;;;;5031577;28;20291;-59
2021/09/18 04:15:39;;;;;;;125.27;62.60;;;13.30;1.00;;;;;;5031419;28;20623;-60
2021/09/18 04:18:06;;;;;;;122.63;60.53;;;13.30;1.00;;;;;;5031455;28;20207;-59
2021/09/18 04:20:33;;;;;;;111.50;59.27;;;13.20;1.00;;;;;;5031056;28;20260;-58
2021/09/18 04:22:59;;;;;;;111.90;58.10;;;13.20;1.00;;;;;;5031551;28;20264;-59
2021/09/18 04:25:26;;;;;;;112.63;60.70;;;13.20;1.00;;;;;;5031274;28;20205;-59
2021/09/18 04:27:53;;;;;;;113.97;59.00;;;13.20;1.00;;;;;;5031411;28;20234;-57
2021/09/18 04:30:20;;;;;;;110.93;57.57;;;13.20;1.00;;;;;;5032354;28;20218;-59
2021/09/18 04:32:48;;;;;;;113.33;59.23;;;13.20;1.00;;;;;;5034890;28;20206;-59
2021/09/18 04:35:14;;;;;;;118.27;61.07;;;13.10;1.00;;;;;;5034658;28;20214;-59
2021/09/18 04:37:41;;;;;;;113.67;57.70;;;13.10;1.00;;;;;;5034634;28;20233;-58
2021/09/18 04:40:09;;;;;;;100.10;56.67;;;13.10;1.00;;;;;;5034644;28;20674;-59
2021/09/18 04:42:35;;;;;;;101.77;55.83;;;13.10;1.00;;;;;;5034800;28;20632;-58
2021/09/18 04:45:02;;;;;;;103.23;56.17;;;13.00;1.00;;;;;;5034479;28;20209;-61
2021/09/18 04:47:29;;;;;;;109.80;58.50;;;13.00;1.00;;;;;;5034495;28;20712;-59
2021/09/18 04:49:57;;;;;;;107.73;58.13;;;13.00;1.00;;;;;;5035057;28;20591;-59
2021/09/18 04:52:23;;;;;;;116.43;58.53;;;13.00;1.00;;;;;;5035042;28;20206;-59
2021/09/18 04:54:53;;;;;;;97.60;55.87;;;13.00;1.00;;;;;;5034577;28;20213;-59
2021/09/18 04:57:19;;;;;;;109.40;60.50;;;13.00;1.00;;;;;;5034677;28;20234;-58
2021/09/18 04:59:46;;;;;;;112.13;59.63;;;13.00;1.00;;;;;;5034553;28;20206;-58
2021/09/18 05:02:13;;;;;;;111.03;57.97;;;13.00;1.00;;;;;;5034133;28;20221;-59
2021/09/18 05:04:39;;;;;;;102.03;58.17;;;13.00;1.00;;;;;;5034560;28;20213;-60
2021/09/18 05:07:07;;;;;;;118.17;59.53;;;13.00;1.00;;;;;;5034332;28;20230;-59
2021/09/18 05:09:34;;;;;;;111.70;61.67;;;13.00;1.00;;;;;;5034364;28;20255;-57
2021/09/18 05:12:01;;;;;;;132.83;60.97;;;13.00;1.00;;;;;;5034278;28;20206;-59
2021/09/18 05:14:27;;;;;;;133.50;64.60;;;13.00;1.00;;;;;;5033938;28;20244;-60
2021/09/18 05:16:54;;;;;;;130.97;66.63;;;12.90;1.00;;;;;;5033777;28;20640;-59
2021/09/18 05:19:20;;;;;;;143.37;67.63;;;12.90;1.00;;;;;;5034116;28;20248;-58
2021/09/18 05:21:47;;;;;;;127.27;64.57;;;13.00;1.00;;;;;;5034104;28;20229;-59
2021/09/18 05:24:15;;;;;;;145.97;65.73;;;13.00;3.50;;;;;;5033948;28;20239;-59
2021/09/18 05:26:42;;;;;;;136.33;66.40;;;13.00;8.50;;;;;;5033636;28;20234;-59
2021/09/18 05:29:09;;;;;;;158.33;70.40;;;12.90;16.80;;;;;;5033983;28;20264;-59
2021/09/18 05:31:35;;;;;;;142.60;67.10;;;12.90;25.90;;;;;;5033904;28;20297;-59
2021/09/18 05:34:02;;;;;;;140.30;66.97;;;13.00;30.00;;;;;;5033811;28;20212;-54
2021/09/18 05:36:29;;;;;;;133.57;62.33;;;13.00;39.70;;;;;;5033490;28;20226;-58
2021/09/18 05:38:55;;;;;;;134.97;65.20;;;13.00;51.40;;;;;;5033660;28;20272;-56
2021/09/18 05:41:23;;;;;;;136.53;67.80;;;13.00;56.20;;;;;;5033199;28;20226;-59
2021/09/18 05:43:50;;;;;;;126.70;65.37;;;13.00;64.20;;;;;;5033091;28;20210;-59
2021/09/18 05:46:16;;;;;;;133.73;66.00;;;13.00;63.70;;;;;;5033470;28;20672;-60
2021/09/18 05:48:43;;;;;;;133.20;65.83;;;13.10;65.30;;;;;;5033494;28;20267;-58
2021/09/18 05:51:10;;;;;;;142.50;66.73;;;13.10;69.80;;;;;;5033579;28;20210;-59
2021/09/18 05:53:37;;;;;;;126.93;64.40;;;13.10;71.90;;;;;;5033588;28;20243;-59
2021/09/18 05:56:04;;;;;;;131.47;65.90;;;13.10;76.60;;;;;;5033272;28;20254;-58
2021/09/18 05:58:32;;;;;;;134.30;66.53;;;13.10;84.10;;;;;;5030943;28;20206;-59
2021/09/18 06:00:58;;;;;;;136.90;65.90;;;13.20;92.20;;;;;;5033290;28;20210;-59
2021/09/18 06:03:25;;;;;;;124.77;62.97;;;13.20;95.00;;;;;;5033220;28;20238;-56
2021/09/18 06:05:51;;;;;;;134.47;64.07;;;13.20;99.80;;;;;;5032974;28;20206;-59
2021/09/18 06:08:18;;;;;;;137.37;66.10;;;13.20;99.90;;;;;;5033021;28;20210;-58
2021/09/18 06:10:45;;;;;;;133.97;65.33;;;13.30;99.90;;;;;;5032983;28;20210;-60
2021/09/18 06:13:11;;;;;;;120.67;62.53;;;13.30;99.90;;;;;;5032700;28;20210;-57
2021/09/18 06:15:39;;;;;;;140.77;67.50;;;13.40;99.90;;;;;;5032939;28;20260;-58
2021/09/18 06:18:06;;;;;;;130.67;64.50;;;13.40;99.90;;;;;;5033066;28;20210;-57
2021/09/18 06:20:33;;;;;;;123.87;62.27;;;13.50;99.90;;;;;;5032884;28;20256;-59
2021/09/18 06:22:59;;;;;;;111.63;60.33;;;13.60;99.90;;;;;;5032813;28;20225;-56
2021/09/18 06:25:26;;;;;;;113.93;59.63;;;13.60;99.90;;;;;;5032532;28;20256;-58
2021/09/18 06:27:53;;;;;;;119.83;59.50;;;13.70;99.90;;;;;;5032511;28;20771;-59
2021/09/18 06:30:20;;;;;;;101.23;58.37;;;13.70;99.90;;;;;;5032819;28;20277;-58
2021/09/18 06:32:48;;;;;;;102.83;57.80;;;13.80;99.90;;;;;;5032809;28;20206;-59
2021/09/18 06:35:15;;;;;;;106.47;57.27;;;13.80;99.90;;;;;;5032151;28;20744;-55
2021/09/18 06:37:44;;;;;;;103.27;58.10;;;13.90;99.90;;;;;;5031766;28;20633;-59
2021/09/18 06:40:13;;;;;;;107.87;58.30;;;14.00;99.90;;;;;;5032493;28;20317;-56
2021/09/18 06:42:39;;;;;;;111.00;58.50;;;14.00;99.90;;;;;;5032624;28;20718;-57
2021/09/18 06:45:07;;;;;;;110.97;60.03;;;14.10;99.90;;;;;;5032216;28;20240;-58
2021/09/18 06:47:34;;;;;;;109.40;60.17;;;14.20;99.90;;;;;;5032279;28;20238;-58
2021/09/18 06:50:03;;;;;;;109.50;62.20;;;14.20;99.90;;;;;;5032271;28;20245;-58
2021/09/18 06:52:30;;;;;;;108.77;62.37;;;14.30;99.90;;;;;;5032108;28;20736;-56
2021/09/18 06:54:56;;;;;;;109.00;62.37;;;14.40;99.90;;;;;;5032290;28;20214;-56
2021/09/18 06:57:23;;;;;;;108.10;62.30;;;14.60;99.90;;;;;;5032302;28;20222;-57
2021/09/18 06:59:50;;;;;;;113.37;65.00;;;14.70;99.90;;;;;;5032097;28;20264;-59
2021/09/18 07:02:16;;;;;;;127.27;74.13;;;14.80;99.90;;;;;;5031890;28;20348;-57
2021/09/18 07:04:43;;;;;;;124.83;75.40;;;14.90;99.90;;;;;;5031783;28;20217;-57
2021/09/18 07:07:11;;;;;;;125.47;75.33;;;15.00;99.90;;;;;;5031768;28;20226;-58
2021/09/18 07:09:38;;;;;;;118.43;72.53;;;15.10;99.90;;;;;;5032279;28;20206;-59
2021/09/18 07:12:05;;;;;;;115.20;72.07;;;15.20;99.90;;;;;;5032032;28;20202;-59
2021/09/18 07:14:31;;;;;;;118.93;71.73;;;15.30;99.90;;;;;;5032113;28;20640;-59
2021/09/18 07:16:58;;;;;;;106.30;67.30;;;15.30;99.90;;;;;;5031783;28;20718;-57
2021/09/18 07:19:25;;;;;;;104.20;67.20;;;15.50;99.90;;;;;;5031852;28;20678;-55
2021/09/18 07:21:51;;;;;;;99.03;63.33;;;15.60;99.90;;;;;;5031496;28;20277;-57
2021/09/18 07:24:19;;;;;;;99.87;63.93;;;15.70;99.90;;;;;;5031908;28;20210;-59
2021/09/18 07:26:47;;;;;;;92.37;60.77;;;15.80;39.70;;;;;;5030415;28;20292;-58
2021/09/18 07:29:13;;;;;;;90.80;60.77;;;15.80;1.00;;;;;;5031842;28;20222;-58
2021/09/18 07:31:40;;;;;;;98.77;62.63;;;15.90;1.00;;;;;;5031236;28;20206;-55
2021/09/18 07:34:07;;;;;;;92.33;62.37;;;15.90;1.00;;;;;;5031519;28;20206;-56
2021/09/18 07:36:33;;;;;;;92.43;60.37;;;15.90;1.00;;;;;;5031351;28;20226;-57
2021/09/18 07:39:00;;;;;;;91.30;59.93;;;15.90;1.00;;;;;;5031827;28;20205;-58
2021/09/18 07:41:28;;;;;;;88.53;58.27;;;15.90;99.90;;;;;;5031911;28;20206;-58
2021/09/18 07:44:00;;;;;;;89.37;57.47;;;16.00;1.00;;;;;;5031627;28;20276;-58
2021/09/18 07:46:27;;;;;;;84.37;56.87;;;16.20;1.00;;;;;;5031392;28;20254;-59
2021/09/18 07:48:53;;;;;;;93.30;60.10;;;16.30;99.90;;;;;;5031391;28;20565;-59
2021/09/18 07:51:20;;;;;;;87.40;57.83;;;16.20;99.90;;;;;;5031487;28;20670;-57
2021/09/18 07:53:47;;;;;;;98.20;62.53;;;16.40;99.90;;;;;;5031816;28;20198;-57
2021/09/18 07:56:13;;;;;;;98.10;63.13;;;16.40;99.90;;;;;;5031283;28;20665;-58
2021/09/18 07:58:41;;;;;;;90.17;59.83;;;16.50;24.10;;;;;;5031500;28;20623;-58
2021/09/18 08:01:08;;;;;;;90.53;60.10;;;16.60;1.00;;;;;;5031848;28;20627;-58
2021/09/18 08:03:35;;;;;;;93.20;60.83;;;16.60;99.90;;;;;;5031466;28;20222;-58
2021/09/18 08:06:02;;;;;;;94.57;59.00;;;16.70;99.90;;;;;;5033331;28;20233;-58
2021/09/18 08:08:28;;;;;;;89.93;62.07;;;16.80;43.60;;;;;;5035543;28;20256;-56
2021/09/18 08:10:55;;;;;;;92.43;61.93;;;16.80;99.90;;;;;;5035265;28;20311;-58
2021/09/18 08:13:22;;;;;;;89.43;59.30;;;16.90;99.90;;;;;;5035352;28;20202;-59
2021/09/18 08:15:50;;;;;;;87.40;59.20;;;17.00;99.90;;;;;;5034763;28;20209;-59
2021/09/18 08:18:17;;;;;;;90.30;57.10;;;17.10;85.30;;;;;;5035239;28;20267;-55
2021/09/18 08:20:43;;;;;;;86.37;59.10;;;17.20;1.00;;;;;;5035283;28;20210;-55
2021/09/18 08:23:10;;;;;;;89.50;58.00;;;17.30;33.20;;;;;;5035084;28;20234;-57
2021/09/18 08:25:37;;;;;;;87.37;55.83;;;17.40;1.00;;;;;;5034640;28;20675;-59
2021/09/18 08:28:04;;;;;;;79.03;53.17;;;17.50;1.00;;;;;;5035057;28;20225;-57
2021/09/18 08:30:31;;;;;;;78.93;54.23;;;17.60;99.90;;;;;;5034691;28;20637;-57
2021/09/18 08:32:59;;;;;;;76.03;51.00;;;17.70;99.90;;;;;;5034854;28;20580;-62
2021/09/18 08:35:26;;;;;;;74.03;50.47;;;17.70;1.00;;;;;;5034562;28;20635;-59
2021/09/18 08:37:53;;;;;;;74.20;50.50;;;17.80;1.00;;;;;;5034456;28;20643;-59
2021/09/18 08:40:19;;;;;;;76.90;51.43;;;17.90;1.00;;;;;;5034825;28;20213;-58
2021/09/18 08:42:46;;;;;;;74.23;51.93;;;17.90;1.00;;;;;;5034505;28;20702;-60
2021/09/18 08:45:13;;;;;;;69.47;48.50;;;18.00;1.00;;;;;;5034227;28;20261;-58
2021/09/18 08:47:42;;;;;;;70.33;48.57;;;18.10;1.00;;;;;;5034682;28;20242;-59
2021/09/18 08:50:15;;;;;;;65.60;46.53;;;18.30;99.90;;;;;;5034613;28;20217;-59
2021/09/18 08:52:42;;;;;;;67.23;47.37;;;18.50;95.80;;;;;;5034812;28;20324;-58
2021/09/18 08:55:09;;;;;;;71.47;48.43;;;18.50;1.00;;;;;;5034023;28;20207;-58
2021/09/18 08:57:36;;;;;;;70.13;46.00;;;18.60;1.00;;;;;;5034011;28;20277;-60
2021/09/18 09:00:04;;;;;;;68.63;47.13;;;18.80;99.90;;;;;;5034359;28;20210;-59
2021/09/18 09:02:33;;;;;;;61.50;44.67;;;18.90;86.30;;;;;;5034247;28;20226;-59
2021/09/18 09:05:05;;;;;;;60.67;42.97;;;19.00;1.00;;;;;;5034022;28;20651;-59
2021/09/18 09:07:33;;;;;;;57.23;42.87;;;19.10;99.90;;;;;;5034109;28;20776;-59
2021/09/18 09:10:02;;;;;;;58.83;41.07;;;19.40;1.00;;;;;;5034054;28;20218;-60
2021/09/18 09:12:31;;;;;;;62.17;41.27;;;19.50;99.90;;;;;;5034108;28;20687;-58
2021/09/18 09:14:58;;;;;;;56.03;38.90;;;19.50;99.90;;;;;;5033816;28;20210;-59
2021/09/18 09:17:27;;;;;;;59.70;42.07;;;19.50;99.90;;;;;;5032814;28;20710;-59
2021/09/18 09:19:55;;;;;;;58.70;42.17;;;19.30;99.90;;;;;;5034090;28;20260;-59
2021/09/18 09:22:42;;;;;;;63.57;40.33;;;19.00;99.90;;;;;;5033732;28;20699;-58
2021/09/18 09:25:29;;;;;;;60.47;41.00;;;18.80;99.90;;;;;;5033200;28;20206;-59
2021/09/18 09:27:57;;;;;;;59.33;40.53;;;18.60;99.90;;;;;;5033752;28;20230;-57
2021/09/18 09:30:33;;;;;;;64.57;43.97;;;18.60;99.90;;;;;;5033881;28;20210;-59
2021/09/18 09:33:08;;;;;;;56.90;39.60;;;18.50;99.90;;;;;;5033512;28;20210;-60
2021/09/18 09:35:35;;;;;;;63.30;42.57;;;18.30;99.90;;;;;;5033471;28;20256;-59
2021/09/18 09:38:04;;;;;;;60.57;41.77;;;18.30;1.00;;;;;;5033511;28;20253;-56
2021/09/18 09:40:38;;;;;;;55.60;39.57;;;18.30;1.00;;;;;;5033636;28;20206;-59
2021/09/18 09:43:06;;;;;;;48.67;36.33;;;18.40;1.00;;;;;;5033617;28;20249;-60
2021/09/18 09:45:34;;;;;;;47.77;35.50;;;18.50;99.90;;;;;;5032954;28;20212;-60
2021/09/18 09:48:04;;;;;;;47.47;34.60;;;18.50;99.90;;;;;;5033153;28;20292;-60
2021/09/18 09:50:31;;;;;;;45.00;32.63;;;18.60;99.90;;;;;;5033354;28;20217;-57
2021/09/18 09:52:58;;;;;;;42.93;31.10;;;18.60;99.90;;;;;;5033307;28;20293;-59
2021/09/18 09:55:26;;;;;;;40.87;29.50;;;18.60;99.90;;;;;;5033004;28;20214;-59
2021/09/18 09:58:00;;;;;;;39.33;29.40;;;18.70;30.30;;;;;;5033391;28;20230;-59
2021/09/18 10:00:38;;;;;;;45.53;31.93;;;19.00;45.90;;;;;;5033286;28;20336;-58
2021/09/18 10:03:05;;;;;;;43.67;33.07;;;19.20;91.90;;;;;;5033063;28;20755;-58
2021/09/18 10:05:32;;;;;;;38.27;28.70;;;19.20;7.50;;;;;;5032588;28;20213;-56
2021/09/18 10:08:00;;;;;;;35.83;25.80;;;19.10;1.00;;;;;;5033001;28;20233;-57
2021/09/18 10:10:28;;;;;;;34.10;26.07;;;19.40;1.00;;;;;;5032930;28;20297;-57
2021/09/18 10:12:56;;;;;;;28.93;21.73;;;19.60;1.00;;;;;;5032954;28;20260;-59
2021/09/18 10:15:26;;;;;;;32.37;22.73;;;19.80;1.00;;;;;;5032443;28;20785;-59
2021/09/18 10:17:54;;;;;;;33.40;24.93;;;19.70;1.00;;;;;;5032936;28;20309;-60
2021/09/18 10:23:17;;;;;;;40.50;28.63;;;19.80;1.00;;;;;;5032595;28;20273;-59
2021/09/18 10:25:47;;;;;;;37.07;26.70;;;19.80;1.00;;;;;;5032481;28;20210;-57
2021/09/18 10:28:17;;;;;;;36.17;28.07;;;19.70;1.00;;;;;;5032618;28;20590;-56
2021/09/18 10:30:46;;;;;;;36.27;26.80;;;19.70;1.00;;;;;;5032756;28;20210;-56
2021/09/18 10:33:35;;;;;;;35.50;26.20;;;19.70;1.00;;;;;;5032580;28;20206;-59
2021/09/18 10:36:06;;;;;;;36.03;26.03;;;19.60;1.00;;;;;;5032213;28;20317;-59
2021/09/18 10:38:34;;;;;;;36.83;25.53;;;19.60;1.00;;;;;;5032599;28;20206;-58
2021/09/18 10:41:06;;;;;;;33.17;25.03;;;19.80;1.00;;;;;;5032455;28;20761;-54
2021/09/18 10:43:35;;;;;;;33.20;23.93;;;19.80;1.00;;;;;;5032345;28;20283;-59
2021/09/18 10:46:05;;;;;;;34.27;23.60;;;19.80;1.00;;;;;;5031929;28;20226;-59
2021/09/18 10:48:38;;;;;;;28.87;21.57;;;19.90;1.00;;;;;;5032431;28;20264;-59
2021/09/18 10:51:05;;;;;;;28.70;21.93;;;20.10;1.00;;;;;;5032415;28;20202;-59
2021/09/18 10:54:03;;;;;;;29.87;21.90;;;20.30;1.00;;;;;;5032389;28;20210;-59
2021/09/18 10:59:46;;;;;;;26.33;20.20;;;20.50;1.00;;;;;;5145188;27;20500;-58
2021/09/18 11:02:52;;;;;;;25.93;19.70;;;20.60;1.00;;;;;;5129934;28;20206;-65
2021/09/18 11:08:27;;;;;;;27.60;18.93;;;20.80;1.00;;;;;;5176948;22;20733;-64
2021/09/18 11:10:56;;;;;;;26.47;19.10;;;21.10;1.00;;;;;;5109632;28;20192;-64
2021/09/18 11:13:25;;;;;;;25.47;19.77;;;21.30;1.00;;;;;;5109594;28;20261;-65
2021/09/18 11:18:35;;;;;;;27.20;21.00;;;21.40;1.00;;;;;;5174338;22;20259;-63
2021/09/18 11:21:06;;;;;;;33.93;25.27;;;21.20;1.00;;;;;;5068319;28;20208;-63
2021/09/18 11:23:36;;;;;;;29.17;23.30;;;21.20;1.00;;;;;;5068466;28;20284;-63
2021/09/18 11:26:03;;;;;;;31.20;25.20;;;20.80;1.00;;;;;;5065215;28;20229;-62
2021/09/18 11:28:35;;;;;;;33.33;24.10;;;20.60;1.00;;;;;;5048339;28;20208;-62
2021/09/18 11:31:09;;;;;;;30.93;23.33;;;20.40;1.00;;;;;;5048359;28;20324;-62
2021/09/18 11:33:37;;;;;;;29.43;24.30;;;20.20;1.00;;;;;;5048628;28;20626;-62
2021/09/18 11:36:04;;;;;;;33.27;23.33;;;20.20;1.00;;;;;;5048215;28;20312;-61
2021/09/18 11:38:33;;;;;;;27.27;21.97;;;20.00;1.00;;;;;;5048637;28;20230;-62
2021/09/18 11:41:04;;;;;;;28.57;20.70;;;20.10;1.00;;;;;;5048787;28;20206;-64
2021/09/18 11:43:31;;;;;;;26.77;20.63;;;20.30;1.00;;;;;;5048253;28;20300;-63
2021/09/18 11:45:58;;;;;;;24.43;19.63;;;20.50;1.00;;;;;;5048301;28;20279;-63
2021/09/18 11:48:25;;;;;;;24.60;19.63;;;20.60;1.00;;;;;;5047854;28;20296;-62
2021/09/18 11:50:54;;;;;;;25.93;19.93;;;20.70;1.00;;;;;;5048326;28;20295;-63
2021/09/18 11:53:21;;;;;;;22.90;18.23;;;20.50;1.00;;;;;;5048127;28;20229;-64
2021/09/18 11:58:25;;;;;;;19.80;16.57;;;20.10;1.00;;;;;;4831491;26;20236;-64
2021/09/18 12:00:54;;;;;;;19.73;15.30;;;20.00;1.00;;;;;;5047791;28;20633;-63
2021/09/18 12:03:23;;;;;;;22.43;17.30;;;20.10;1.00;;;;;;5048100;28;20631;-65
2021/09/18 12:05:52;;;;;;;23.03;17.07;;;20.00;1.00;;;;;;5047648;28;20205;-63
2021/09/18 12:08:22;;;;;;;20.77;16.33;;;20.10;1.00;;;;;;5047679;28;20255;-64
2021/09/18 12:10:49;;;;;;;20.57;15.87;;;20.20;1.00;;;;;;5034040;28;20297;-64
2021/09/18 12:13:19;;;;;;;29.13;21.33;;;20.30;1.00;;;;;;5034373;28;20206;-63
2021/09/18 12:15:47;;;;;;;28.60;23.70;;;20.40;1.00;;;;;;5034332;28;20201;-64
2021/09/18 12:18:24;;;;;;;27.77;22.13;;;20.20;1.00;;;;;;5034027;28;20230;-64
2021/09/18 12:20:54;;;;;;;25.40;21.27;;;20.10;1.00;;;;;;5034294;28;20206;-64
2021/09/18 12:23:21;;;;;;;25.17;21.43;;;20.20;1.00;;;;;;5034345;28;20206;-64
2021/09/18 12:25:55;;;;;;;29.17;24.57;;;20.10;1.00;;;;;;5033797;28;20206;-65
2021/09/18 12:28:22;;;;;;;27.83;23.87;;;20.10;1.00;;;;;;5034020;28;20207;-64
2021/09/18 12:30:48;;;;;;;26.40;22.60;;;20.10;1.00;;;;;;5034291;28;20218;-64
2021/09/18 12:33:17;;;;;;;27.10;22.53;;;20.10;1.00;;;;;;5033965;28;20268;-64
2021/09/18 12:35:47;;;;;;;25.83;20.63;;;20.00;1.00;;;;;;5033881;28;20780;-65
2021/09/18 12:38:17;;;;;;;20.87;16.83;;;20.10;1.00;;;;;;5033559;28;20699;-64
2021/09/18 12:40:46;;;;;;;22.87;19.20;;;20.20;1.00;;;;;;5033742;28;20264;-64
2021/09/18 12:43:16;;;;;;;22.63;20.23;;;20.40;1.00;;;;;;5033900;28;20329;-64
2021/09/18 12:45:44;;;;;;;23.37;19.03;;;20.60;1.00;;;;;;5033938;28;20207;-64
2021/09/18 12:48:17;;;;;;;24.83;21.60;;;20.70;1.00;;;;;;5033746;28;20208;-64